Time;durP1;ratioP1;P1;durP2;ratioP2;P2;SDS_P1;SDS_P2;PMS_P1;PMS_P2;Temp;Humidity;BMP_temperature;BMP_pressure;BME280_temperature;BME280_humidity;BME280_pressure;Samples;Min_cycle;Max_cycle;Signal;HPM_P1;HPM_P2
2022/04/27 00:00:36;;;;;;;7.43;6.25;;;;;;;;;;5072305;28;20045;-27
2022/04/27 00:03:03;;;;;;;10.20;6.82;;;;;;;;;;5073141;28;20123;-26
2022/04/27 00:05:29;;;;;;;7.88;6.95;;;;;;;;;;5073093;28;20072;-27
2022/04/27 00:07:56;;;;;;;9.13;7.13;;;;;;;;;;5075094;28;20124;-26
2022/04/27 00:10:22;;;;;;;9.10;6.40;;;;;;;;;;5074015;28;20098;-26
2022/04/27 00:12:48;;;;;;;8.18;7.15;;;;;;;;;;5072517;28;20045;-26
2022/04/27 00:15:15;;;;;;;11.27;7.22;;;;;;;;;;5072877;28;20487;-26
2022/04/27 00:17:41;;;;;;;8.15;7.30;;;;;;;;;;5072912;28;20062;-28
2022/04/27 00:20:08;;;;;;;8.90;6.95;;;;;;;;;;5072688;28;20047;-26
2022/04/27 00:22:34;;;;;;;10.00;7.80;;;;;;;;;;5073074;28;20040;-26
2022/04/27 00:25:04;;;;;;;8.95;7.60;;;;;;;;;;5072039;28;20127;-26
2022/04/27 00:27:31;;;;;;;8.43;7.38;;;;;;;;;;5057325;28;20452;-26
2022/04/27 00:29:57;;;;;;;8.93;7.68;;;;;;;;;;5052997;28;20041;-26
2022/04/27 00:32:24;;;;;;;8.98;6.78;;;;;;;;;;5067320;28;20036;-26
2022/04/27 00:34:50;;;;;;;9.07;7.53;;;;;;;;;;5072460;28;20108;-26
2022/04/27 00:37:18;;;;;;;9.40;6.57;;;;;;;;;;5072094;28;20040;-27
2022/04/27 00:39:44;;;;;;;8.73;7.45;;;;;;;;;;5071956;28;20060;-27
2022/04/27 00:42:17;;;;;;;7.95;6.32;;;;;;;;;;5071247;28;20119;-26
2022/04/27 00:44:44;;;;;;;9.83;7.80;;;;;;;;;;5072455;28;20040;-26
2022/04/27 00:47:11;;;;;;;9.68;8.00;;;;;;;;;;5072142;28;20055;-26
2022/04/27 00:49:37;;;;;;;9.55;7.53;;;;;;;;;;5072399;28;20032;-27
2022/04/27 00:52:03;;;;;;;11.45;7.65;;;;;;;;;;5071559;28;20047;-26
2022/04/27 00:54:29;;;;;;;10.77;7.28;;;;;;;;;;5071861;28;20078;-29
2022/04/27 00:56:55;;;;;;;10.65;7.95;;;;;;;;;;5071900;28;20111;-28
2022/04/27 00:59:23;;;;;;;9.45;7.68;;;;;;;;;;5071894;28;20068;-28
2022/04/27 01:01:49;;;;;;;8.93;7.35;;;;;;;;;;5071104;28;20040;-26
2022/04/27 01:04:15;;;;;;;10.63;7.82;;;;;;;;;;5071859;28;20051;-26
2022/04/27 01:06:41;;;;;;;8.75;7.07;;;;;;;;;;5071656;28;20054;-27
2022/04/27 01:09:08;;;;;;;13.85;8.65;;;;;;;;;;5071923;28;20081;-27
2022/04/27 01:11:34;;;;;;;9.65;7.55;;;;;;;;;;5070964;28;20051;-27
2022/04/27 01:14:00;;;;;;;9.65;8.55;;;;;;;;;;5071538;28;20044;-27
2022/04/27 01:16:26;;;;;;;10.35;8.00;;;;;;;;;;5071859;28;20043;-25
2022/04/27 01:18:52;;;;;;;9.77;7.72;;;;;;;;;;5071289;28;20040;-26
2022/04/27 01:21:18;;;;;;;9.50;7.80;;;;;;;;;;5071525;28;20036;-27
2022/04/27 01:23:45;;;;;;;12.02;8.55;;;;;;;;;;5071829;28;20032;-26
2022/04/27 01:26:11;;;;;;;9.15;7.85;;;;;;;;;;5071563;28;20107;-27
2022/04/27 01:28:38;;;;;;;10.25;7.32;;;;;;;;;;5071433;28;20086;-27
2022/04/27 01:31:10;;;;;;;11.77;8.20;;;;;;;;;;5071410;28;20072;-24
2022/04/27 01:33:36;;;;;;;10.77;7.93;;;;;;;;;;5057662;28;20029;-25
2022/04/27 01:36:06;;;;;;;10.85;8.50;;;;;;;;;;5051676;28;20037;-25
2022/04/27 01:38:35;;;;;;;9.32;7.90;;;;;;;;;;5065745;28;20468;-25
2022/04/27 01:41:02;;;;;;;14.30;8.48;;;;;;;;;;5071484;28;20071;-28
2022/04/27 01:43:29;;;;;;;11.45;8.38;;;;;;;;;;5071057;28;20067;-27
2022/04/27 01:45:55;;;;;;;10.30;8.05;;;;;;;;;;5071535;28;20456;-25
2022/04/27 01:48:22;;;;;;;8.73;7.65;;;;;;;;;;5071170;28;20044;-26
2022/04/27 01:50:48;;;;;;;9.30;7.63;;;;;;;;;;5071150;28;20032;-28
2022/04/27 01:56:00;;;;;;;9.30;7.75;;;;;;;;;;5070851;28;20435;-26
2022/04/27 01:58:26;;;;;;;13.23;8.27;;;;;;;;;;5053151;28;20616;-26
2022/04/27 02:00:52;;;;;;;10.38;8.32;;;;;;;;;;5071047;28;20041;-26
2022/04/27 02:03:18;;;;;;;12.18;8.90;;;;;;;;;;5070277;28;20044;-27
2022/04/27 02:05:45;;;;;;;10.18;8.35;;;;;;;;;;5061696;28;20043;-26
2022/04/27 02:08:11;;;;;;;10.40;8.40;;;;;;;;;;5058379;28;20040;-26
2022/04/27 02:10:38;;;;;;;10.57;8.95;;;;;;;;;;5070152;28;20111;-26
2022/04/27 02:13:04;;;;;;;9.35;8.38;;;;;;;;;;5065022;28;20661;-27
2022/04/27 02:15:31;;;;;;;10.00;8.10;;;;;;;;;;5051287;28;20408;-27
2022/04/27 02:17:57;;;;;;;11.07;9.05;;;;;;;;;;5054566;28;20044;-26
2022/04/27 02:20:23;;;;;;;10.80;8.57;;;;;;;;;;5070923;28;20062;-25
2022/04/27 02:22:50;;;;;;;11.68;9.23;;;;;;;;;;5052692;28;20136;-29
2022/04/27 02:25:17;;;;;;;11.20;9.00;;;;;;;;;;5071112;28;20040;-26
2022/04/27 02:27:43;;;;;;;11.40;8.63;;;;;;;;;;5070339;28;20059;-26
2022/04/27 02:30:10;;;;;;;12.45;9.00;;;;;;;;;;5070637;28;20049;-25
2022/04/27 02:32:36;;;;;;;14.27;9.05;;;;;;;;;;5070740;28;20417;-26
2022/04/27 02:35:02;;;;;;;14.15;9.32;;;;;;;;;;5070455;28;20494;-25
2022/04/27 02:37:30;;;;;;;10.70;8.23;;;;;;;;;;5070921;28;20045;-27
2022/04/27 02:39:56;;;;;;;12.55;9.50;;;;;;;;;;5070711;28;20052;-27
2022/04/27 02:42:22;;;;;;;9.73;8.60;;;;;;;;;;5070651;28;20391;-26
2022/04/27 02:44:48;;;;;;;13.13;9.35;;;;;;;;;;5069157;28;20037;-27
2022/04/27 02:47:14;;;;;;;11.90;9.35;;;;;;;;;;5070505;28;20090;-26
2022/04/27 02:52:26;;;;;;;12.93;9.38;;;;;;;;;;5070348;28;20040;-26
2022/04/27 02:54:52;;;;;;;11.43;8.32;;;;;;;;;;5069530;28;20111;-27
2022/04/27 02:57:18;;;;;;;13.02;9.30;;;;;;;;;;5070436;28;20063;-26
2022/04/27 02:59:44;;;;;;;9.75;8.57;;;;;;;;;;5057120;28;20052;-26
2022/04/27 03:02:10;;;;;;;13.38;9.65;;;;;;;;;;5050339;28;20410;-26
2022/04/27 03:04:37;;;;;;;12.50;9.80;;;;;;;;;;5061827;28;20079;-27
2022/04/27 03:07:03;;;;;;;14.80;9.40;;;;;;;;;;5070528;28;20589;-27
2022/04/27 03:09:29;;;;;;;13.90;9.30;;;;;;;;;;5069987;28;20047;-27
2022/04/27 03:11:56;;;;;;;11.43;10.23;;;;;;;;;;5070117;28;20040;-26
2022/04/27 03:14:22;;;;;;;13.52;10.20;;;;;;;;;;5069939;28;20044;-26
2022/04/27 03:16:49;;;;;;;12.00;9.65;;;;;;;;;;5052538;28;20051;-26
2022/04/27 03:19:15;;;;;;;13.65;9.93;;;;;;;;;;5070368;28;20426;-27
2022/04/27 03:21:41;;;;;;;15.90;9.57;;;;;;;;;;5070399;28;20505;-26
2022/04/27 03:24:07;;;;;;;13.30;9.88;;;;;;;;;;5072036;28;20036;-26
2022/04/27 03:26:33;;;;;;;15.30;9.70;;;;;;;;;;5074167;28;20055;-26
2022/04/27 03:29:00;;;;;;;12.60;8.90;;;;;;;;;;5073697;28;20047;-27
2022/04/27 03:31:26;;;;;;;13.52;9.30;;;;;;;;;;5073791;28;20032;-26
2022/04/27 03:33:52;;;;;;;14.23;9.82;;;;;;;;;;5073344;28;20032;-26
2022/04/27 03:36:18;;;;;;;12.68;10.27;;;;;;;;;;5073942;28;20643;-27
2022/04/27 03:38:48;;;;;;;11.05;9.43;;;;;;;;;;5073783;28;20382;-26
2022/04/27 03:41:17;;;;;;;13.45;9.45;;;;;;;;;;5073749;28;20044;-27
2022/04/27 03:43:44;;;;;;;11.55;9.07;;;;;;;;;;5073607;28;20043;-28
2022/04/27 03:46:10;;;;;;;11.63;8.80;;;;;;;;;;5073377;28;20059;-27
2022/04/27 03:48:36;;;;;;;11.35;9.07;;;;;;;;;;5073625;28;20076;-27
2022/04/27 03:51:04;;;;;;;10.95;9.00;;;;;;;;;;5052695;28;20386;-28
2022/04/27 03:53:30;;;;;;;12.85;9.77;;;;;;;;;;5054269;28;20179;-27
2022/04/27 03:55:56;;;;;;;11.73;9.68;;;;;;;;;;5073458;28;20094;-27
2022/04/27 03:58:22;;;;;;;13.27;10.48;;;;;;;;;;5073945;28;20049;-26
2022/04/27 04:00:48;;;;;;;12.55;9.98;;;;;;;;;;5073838;28;20045;-26
2022/04/27 04:03:15;;;;;;;12.38;10.30;;;;;;;;;;5073680;28;20077;-26
2022/04/27 04:05:42;;;;;;;14.45;10.77;;;;;;;;;;5072618;28;20045;-26
2022/04/27 04:08:08;;;;;;;15.43;10.95;;;;;;;;;;5074018;28;20044;-28
2022/04/27 04:10:34;;;;;;;16.23;10.88;;;;;;;;;;5055829;28;20041;-26
2022/04/27 04:13:01;;;;;;;12.05;9.43;;;;;;;;;;5073892;28;20328;-26
2022/04/27 04:15:27;;;;;;;14.65;9.77;;;;;;;;;;5062755;28;20045;-26
2022/04/27 04:17:54;;;;;;;11.60;9.85;;;;;;;;;;5056553;28;20051;-26
2022/04/27 04:20:20;;;;;;;13.40;10.90;;;;;;;;;;5073520;28;20060;-27
2022/04/27 04:22:47;;;;;;;13.02;9.90;;;;;;;;;;5055622;28;20041;-27
2022/04/27 04:30:43;;;;;;;16.67;11.82;;;;;;;;;;5073015;28;20055;-27
2022/04/27 04:33:09;;;;;;;13.85;10.65;;;;;;;;;;5073065;28;20076;-31
2022/04/27 04:35:36;;;;;;;13.20;10.65;;;;;;;;;;5071338;28;20060;-26
2022/04/27 04:38:02;;;;;;;20.38;11.10;;;;;;;;;;5072851;28;20494;-28
2022/04/27 04:40:28;;;;;;;14.70;11.02;;;;;;;;;;5072452;28;20094;-26
2022/04/27 04:42:54;;;;;;;15.32;11.38;;;;;;;;;;5073032;28;20048;-30
2022/04/27 04:45:20;;;;;;;14.57;11.18;;;;;;;;;;5072825;28;20495;-26
2022/04/27 04:47:46;;;;;;;14.13;10.15;;;;;;;;;;5071604;28;20072;-26
2022/04/27 04:50:12;;;;;;;15.43;10.98;;;;;;;;;;5072896;28;20037;-27
2022/04/27 04:52:39;;;;;;;16.05;12.15;;;;;;;;;;5073167;28;20354;-28
2022/04/27 04:55:05;;;;;;;16.83;11.60;;;;;;;;;;5072677;28;20044;-26
2022/04/27 04:57:31;;;;;;;16.35;11.07;;;;;;;;;;5072419;28;20128;-28
2022/04/27 04:59:58;;;;;;;14.93;11.20;;;;;;;;;;5087735;28;20075;-26
2022/04/27 05:02:24;;;;;;;13.15;11.15;;;;;;;;;;5054803;28;20037;-27
2022/04/27 05:04:53;;;;;;;13.93;10.77;;;;;;;;;;5053778;28;20048;-26
2022/04/27 05:07:19;;;;;;;13.48;11.40;;;;;;;;;;5072461;28;20486;-27
2022/04/27 05:09:46;;;;;;;13.75;10.10;;;;;;;;;;5067499;28;20082;-27
2022/04/27 05:12:12;;;;;;;16.00;11.85;;;;;;;;;;5071928;28;20147;-26
2022/04/27 05:14:39;;;;;;;12.82;10.60;;;;;;;;;;5072248;28;20048;-27
2022/04/27 05:17:05;;;;;;;13.57;11.00;;;;;;;;;;5072710;28;20047;-27
2022/04/27 05:19:31;;;;;;;16.13;10.95;;;;;;;;;;5071725;28;20064;-27
2022/04/27 05:21:57;;;;;;;16.08;11.23;;;;;;;;;;5067183;28;20033;-27
2022/04/27 05:24:23;;;;;;;16.05;11.27;;;;;;;;;;5069535;28;20029;-27
2022/04/27 05:26:49;;;;;;;17.42;11.95;;;;;;;;;;5060155;28;20101;-26
2022/04/27 05:32:03;;;;;;;15.05;11.57;;;;;;;;;;5065226;28;20044;-28
2022/04/27 05:34:30;;;;;;;14.43;11.63;;;;;;;;;;5071937;28;20120;-27
2022/04/27 05:36:59;;;;;;;15.40;11.32;;;;;;;;;;5071963;28;20047;-25
2022/04/27 05:39:25;;;;;;;16.27;12.27;;;;;;;;;;5072286;28;20047;-27
2022/04/27 05:41:52;;;;;;;15.70;11.20;;;;;;;;;;5068599;28;20139;-25
2022/04/27 05:44:19;;;;;;;14.52;10.75;;;;;;;;;;5071861;28;20494;-25
2022/04/27 05:46:45;;;;;;;16.00;11.68;;;;;;;;;;5073322;28;20119;-25
2022/04/27 05:49:12;;;;;;;15.95;12.48;;;;;;;;;;5073214;28;20119;-26
2022/04/27 05:51:38;;;;;;;14.40;10.93;;;;;;;;;;5070003;28;20040;-27
2022/04/27 05:54:04;;;;;;;15.27;11.40;;;;;;;;;;5071262;28;20032;-27
2022/04/27 05:56:31;;;;;;;16.92;11.90;;;;;;;;;;5047188;28;20028;-26
2022/04/27 05:58:57;;;;;;;20.30;12.43;;;;;;;;;;5059467;28;20138;-25
2022/04/27 06:01:23;;;;;;;17.40;11.75;;;;;;;;;;5065400;28;20097;-25
2022/04/27 06:03:49;;;;;;;18.70;11.80;;;;;;;;;;5052654;28;20072;-26
2022/04/27 06:06:16;;;;;;;21.67;10.68;;;;;;;;;;5051170;28;20047;-25
2022/04/27 06:08:42;;;;;;;18.80;11.82;;;;;;;;;;5068131;28;20041;-26
2022/04/27 06:11:08;;;;;;;16.83;10.55;;;;;;;;;;5041440;28;20094;-28
2022/04/27 06:13:34;;;;;;;15.75;12.57;;;;;;;;;;5067951;28;20037;-26
2022/04/27 06:16:00;;;;;;;16.38;11.63;;;;;;;;;;5059919;28;20037;-25
2022/04/27 06:18:26;;;;;;;14.00;11.55;;;;;;;;;;5069938;28;20474;-26
2022/04/27 06:20:52;;;;;;;15.38;10.93;;;;;;;;;;5054200;28;20372;-26
2022/04/27 06:23:18;;;;;;;19.48;12.75;;;;;;;;;;5069818;28;20050;-25
2022/04/27 06:25:48;;;;;;;17.20;12.27;;;;;;;;;;5065683;28;20072;-25
2022/04/27 06:28:14;;;;;;;21.25;12.10;;;;;;;;;;5068092;28;20033;-27
2022/04/27 06:30:40;;;;;;;15.93;10.95;;;;;;;;;;5059755;28;20033;-25
2022/04/27 06:33:06;;;;;;;18.70;11.50;;;;;;;;;;5062050;28;20040;-25
2022/04/27 06:35:32;;;;;;;15.13;10.60;;;;;;;;;;5064752;28;20041;-25
2022/04/27 06:37:59;;;;;;;12.80;10.95;;;;;;;;;;5069190;28;20048;-26
2022/04/27 06:40:25;;;;;;;19.75;11.77;;;;;;;;;;5061780;28;20041;-26
2022/04/27 06:42:52;;;;;;;15.07;10.70;;;;;;;;;;5067629;28;20082;-26
2022/04/27 06:45:18;;;;;;;12.18;9.60;;;;;;;;;;5070057;28;20048;-27
2022/04/27 06:47:44;;;;;;;11.50;10.02;;;;;;;;;;5065911;28;20390;-28
2022/04/27 06:50:13;;;;;;;12.18;9.95;;;;;;;;;;5062640;28;20386;-26
2022/04/27 06:52:46;;;;;;;15.15;10.15;;;;;;;;;;5066508;28;20067;-26
2022/04/27 06:55:12;;;;;;;13.70;10.40;;;;;;;;;;5058302;28;20575;-26
2022/04/27 06:57:39;;;;;;;17.13;11.20;;;;;;;;;;5070339;28;20055;-26
2022/04/27 07:00:05;;;;;;;13.35;9.30;;;;;;;;;;5073385;28;20448;-27
2022/04/27 07:02:32;;;;;;;11.57;8.38;;;;;;;;;;5067647;28;20514;-26
2022/04/27 07:05:00;;;;;;;13.88;8.82;;;;;;;;;;5074019;28;20506;-25
2022/04/27 07:07:27;;;;;;;10.23;8.02;;;;;;;;;;5070409;28;20044;-26
2022/04/27 07:09:53;;;;;;;10.73;8.80;;;;;;;;;;5069528;28;20039;-26
2022/04/27 07:12:20;;;;;;;11.25;7.82;;;;;;;;;;5069683;28;20080;-27
2022/04/27 07:14:46;;;;;;;14.30;9.90;;;;;;;;;;5064178;28;20071;-26
2022/04/27 07:17:12;;;;;;;10.35;8.70;;;;;;;;;;5074005;28;20044;-26
2022/04/27 07:19:39;;;;;;;11.55;9.15;;;;;;;;;;5073569;28;20047;-27
2022/04/27 07:22:06;;;;;;;12.52;8.80;;;;;;;;;;5073267;28;20041;-25
2022/04/27 07:24:32;;;;;;;11.80;8.75;;;;;;;;;;5073855;28;20485;-26
2022/04/27 07:26:58;;;;;;;9.68;8.38;;;;;;;;;;5063678;28;20444;-26
2022/04/27 07:29:24;;;;;;;10.20;7.28;;;;;;;;;;5071407;28;20455;-26
2022/04/27 07:31:51;;;;;;;13.00;8.18;;;;;;;;;;5066884;28;20040;-27
2022/04/27 07:34:17;;;;;;;9.95;7.35;;;;;;;;;;5064745;28;20033;-26
2022/04/27 07:36:44;;;;;;;11.57;7.93;;;;;;;;;;5071455;28;20115;-26
2022/04/27 07:39:10;;;;;;;11.02;7.85;;;;;;;;;;5068763;28;20041;-26
2022/04/27 07:41:36;;;;;;;10.60;7.82;;;;;;;;;;5070766;28;20049;-26
2022/04/27 07:44:03;;;;;;;8.80;7.38;;;;;;;;;;5072361;28;20101;-26
2022/04/27 07:46:29;;;;;;;9.18;6.90;;;;;;;;;;5072713;28;20551;-26
2022/04/27 07:48:55;;;;;;;8.93;6.93;;;;;;;;;;5073213;28;20495;-26
2022/04/27 07:51:22;;;;;;;10.80;6.65;;;;;;;;;;5072845;28;20044;-25
2022/04/27 07:53:48;;;;;;;9.57;6.35;;;;;;;;;;5073294;28;20498;-25
2022/04/27 07:56:15;;;;;;;7.32;6.45;;;;;;;;;;5073411;28;20044;-25
2022/04/27 07:58:41;;;;;;;8.57;6.25;;;;;;;;;;5073740;28;20051;-27
2022/04/27 08:01:07;;;;;;;6.40;5.80;;;;;;;;;;5073353;28;20500;-26
2022/04/27 08:03:33;;;;;;;7.72;5.55;;;;;;;;;;5073410;28;20041;-26
2022/04/27 08:06:02;;;;;;;7.45;5.18;;;;;;;;;;5073658;28;20094;-26
2022/04/27 08:08:29;;;;;;;5.70;3.97;;;;;;;;;;5073937;28;20076;-26
2022/04/27 08:10:56;;;;;;;6.03;3.72;;;;;;;;;;5055421;28;20079;-26
2022/04/27 08:13:22;;;;;;;5.15;2.80;;;;;;;;;;5073661;28;20111;-26
2022/04/27 08:15:48;;;;;;;4.28;2.88;;;;;;;;;;5071082;28;20044;-26
2022/04/27 08:18:14;;;;;;;5.55;2.83;;;;;;;;;;5073391;28;20409;-27
2022/04/27 08:23:29;;;;;;;4.72;2.75;;;;;;;;;;5066507;28;20051;-28
2022/04/27 08:25:55;;;;;;;3.67;2.60;;;;;;;;;;5062914;28;20055;-26
2022/04/27 08:28:21;;;;;;;3.05;2.50;;;;;;;;;;5053336;28;20495;-26
2022/04/27 08:30:48;;;;;;;3.20;2.78;;;;;;;;;;5070818;28;20036;-27
2022/04/27 08:33:14;;;;;;;6.50;3.03;;;;;;;;;;5073457;28;20048;-29
2022/04/27 08:35:41;;;;;;;2.78;2.30;;;;;;;;;;5073562;28;20039;-25
2022/04/27 08:38:08;;;;;;;3.80;2.53;;;;;;;;;;5072895;28;20044;-27
2022/04/27 08:40:39;;;;;;;3.28;2.75;;;;;;;;;;5072950;28;20071;-26
2022/04/27 08:43:05;;;;;;;2.70;2.40;;;;;;;;;;5073049;28;20639;-27
2022/04/27 08:45:32;;;;;;;4.93;2.60;;;;;;;;;;5073174;28;20119;-25
2022/04/27 08:47:59;;;;;;;4.20;2.70;;;;;;;;;;5073292;28;20048;-27
2022/04/27 08:50:26;;;;;;;4.18;2.70;;;;;;;;;;5063549;28;20075;-26
2022/04/27 08:52:52;;;;;;;6.30;3.25;;;;;;;;;;5073070;28;20044;-26
2022/04/27 08:55:19;;;;;;;3.45;2.67;;;;;;;;;;5073079;28;20047;-26
2022/04/27 08:57:45;;;;;;;2.85;2.60;;;;;;;;;;5073052;28;20090;-26
2022/04/27 09:00:16;;;;;;;3.83;3.08;;;;;;;;;;5072430;28;20141;-26
2022/04/27 09:02:42;;;;;;;4.93;3.10;;;;;;;;;;5072663;28;20040;-28
2022/04/27 09:05:11;;;;;;;4.28;2.38;;;;;;;;;;5072616;28;20040;-27
2022/04/27 09:07:50;;;;;;;3.75;2.13;;;;;;;;;;5072697;28;20460;-26
2022/04/27 09:10:17;;;;;;;3.83;2.75;;;;;;;;;;5072694;28;20032;-27
2022/04/27 09:12:51;;;;;;;5.43;2.90;;;;;;;;;;5071837;28;20033;-26
2022/04/27 09:15:18;;;;;;;2.70;2.20;;;;;;;;;;5072323;28;20119;-27
2022/04/27 09:20:48;;;;;;;3.05;2.47;;;;;;;;;;5071804;28;20175;-26
2022/04/27 09:23:24;;;;;;;4.43;2.42;;;;;;;;;;5072004;28;20127;-26
2022/04/27 09:25:55;;;;;;;5.35;2.60;;;;;;;;;;5072144;28;20079;-26
2022/04/27 09:28:31;;;;;;;4.20;2.53;;;;;;;;;;5072304;28;20049;-26
2022/04/27 09:30:58;;;;;;;5.18;2.53;;;;;;;;;;5072206;28;20072;-27
2022/04/27 09:33:35;;;;;;;3.83;2.58;;;;;;;;;;5071894;28;20044;-27
2022/04/27 09:36:01;;;;;;;4.80;2.58;;;;;;;;;;5071746;28;20048;-26
2022/04/27 09:38:38;;;;;;;3.83;2.33;;;;;;;;;;5071682;28;20131;-27
2022/04/27 09:41:04;;;;;;;5.20;2.92;;;;;;;;;;5071840;28;20040;-26
2022/04/27 09:43:44;;;;;;;4.10;3.05;;;;;;;;;;5072061;28;20055;-27
2022/04/27 09:46:17;;;;;;;3.15;2.47;;;;;;;;;;5072177;28;20049;-27
2022/04/27 09:48:46;;;;;;;5.07;2.33;;;;;;;;;;5071684;28;20040;-26
2022/04/27 09:51:15;;;;;;;2.50;2.20;;;;;;;;;;5072139;28;20482;-26
2022/04/27 09:53:42;;;;;;;5.15;2.15;;;;;;;;;;5072001;28;20036;-26
2022/04/27 09:56:12;;;;;;;3.95;2.45;;;;;;;;;;5072003;28;20036;-26
2022/04/27 09:58:47;;;;;;;3.05;2.72;;;;;;;;;;5071411;28;20079;-26
2022/04/27 10:01:14;;;;;;;2.83;2.20;;;;;;;;;;5071875;28;20075;-26
2022/04/27 10:03:42;;;;;;;3.30;2.22;;;;;;;;;;5069614;28;20083;-26
2022/04/27 10:06:08;;;;;;;4.57;2.33;;;;;;;;;;5071286;28;20048;-27
2022/04/27 10:08:36;;;;;;;3.40;2.45;;;;;;;;;;5055256;28;20041;-26
2022/04/27 10:11:04;;;;;;;2.88;2.47;;;;;;;;;;5067601;28;20036;-26
2022/04/27 10:13:30;;;;;;;2.10;1.90;;;;;;;;;;5070993;28;20042;-26
2022/04/27 10:15:56;;;;;;;2.95;2.17;;;;;;;;;;5071315;28;20386;-26
2022/04/27 10:18:22;;;;;;;2.65;2.30;;;;;;;;;;5056546;28;20134;-26
2022/04/27 10:20:49;;;;;;;6.70;2.47;;;;;;;;;;5051048;28;20048;-26
2022/04/27 10:23:22;;;;;;;4.68;2.50;;;;;;;;;;5049888;28;20124;-27
2022/04/27 10:26:07;;;;;;;4.75;2.50;;;;;;;;;;5054402;28;20040;-26
2022/04/27 10:28:34;;;;;;;5.22;2.50;;;;;;;;;;5069492;28;20071;-26
2022/04/27 10:31:03;;;;;;;4.95;2.30;;;;;;;;;;5069588;28;20056;-26
2022/04/27 10:33:39;;;;;;;5.07;2.42;;;;;;;;;;5072899;28;20036;-26
2022/04/27 10:36:24;;;;;;;2.95;1.92;;;;;;;;;;5073488;28;20041;-26
2022/04/27 10:39:09;;;;;;;3.22;2.38;;;;;;;;;;5074975;28;20052;-26
2022/04/27 10:41:35;;;;;;;5.75;2.70;;;;;;;;;;5074920;28;20520;-26
2022/04/27 10:44:01;;;;;;;4.75;2.47;;;;;;;;;;5074979;28;20125;-27
2022/04/27 10:46:38;;;;;;;3.63;2.60;;;;;;;;;;5074967;28;20048;-27
2022/04/27 10:49:23;;;;;;;2.70;2.30;;;;;;;;;;5074944;28;20052;-27
2022/04/27 10:51:59;;;;;;;3.95;1.85;;;;;;;;;;5074616;28;20036;-26
2022/04/27 10:54:31;;;;;;;5.60;2.25;;;;;;;;;;5074948;28;20086;-28
2022/04/27 10:57:15;;;;;;;4.43;2.20;;;;;;;;;;5074640;28;20536;-29
2022/04/27 10:59:48;;;;;;;4.18;2.45;;;;;;;;;;5074813;28;20398;-27
2022/04/27 11:02:33;;;;;;;3.40;2.13;;;;;;;;;;5074186;28;20048;-28
2022/04/27 11:05:00;;;;;;;4.03;2.28;;;;;;;;;;5074285;28;20621;-28
2022/04/27 11:07:31;;;;;;;4.68;2.90;;;;;;;;;;5071443;28;20161;-28
2022/04/27 11:10:17;;;;;;;4.00;2.15;;;;;;;;;;5071515;28;20043;-27
2022/04/27 11:12:48;;;;;;;3.75;2.30;;;;;;;;;;5072537;28;20472;-26
2022/04/27 11:15:22;;;;;;;4.05;2.50;;;;;;;;;;5054686;28;20082;-26
2022/04/27 11:18:01;;;;;;;5.00;2.80;;;;;;;;;;5067018;28;20037;-26
2022/04/27 11:20:30;;;;;;;4.60;2.50;;;;;;;;;;5072220;28;20052;-27
2022/04/27 11:22:56;;;;;;;4.22;2.53;;;;;;;;;;5073740;28;20116;-27
2022/04/27 11:25:30;;;;;;;4.15;2.50;;;;;;;;;;5074274;28;20123;-27
2022/04/27 11:27:57;;;;;;;3.55;2.22;;;;;;;;;;5063665;28;20443;-26
2022/04/27 11:30:23;;;;;;;4.32;2.60;;;;;;;;;;5041220;28;20528;-27
2022/04/27 11:32:50;;;;;;;3.75;2.47;;;;;;;;;;5066985;28;20037;-26
2022/04/27 11:35:17;;;;;;;3.92;2.50;;;;;;;;;;5073793;28;20093;-30
2022/04/27 11:37:43;;;;;;;5.28;2.22;;;;;;;;;;5073239;28;20044;-29
2022/04/27 11:40:12;;;;;;;3.30;2.20;;;;;;;;;;5074079;28;20045;-27
2022/04/27 11:42:41;;;;;;;4.15;2.33;;;;;;;;;;5073953;28;20044;-27
2022/04/27 11:45:08;;;;;;;5.68;2.45;;;;;;;;;;5073227;28;20044;-27
2022/04/27 11:47:34;;;;;;;4.35;2.55;;;;;;;;;;5073951;28;20040;-30
2022/04/27 11:50:05;;;;;;;3.35;2.25;;;;;;;;;;5048243;28;20582;-30
2022/04/27 11:52:32;;;;;;;5.63;2.65;;;;;;;;;;5067529;28;20410;-30
2022/04/27 11:55:02;;;;;;;4.82;2.70;;;;;;;;;;5054914;28;20516;-28
2022/04/27 11:57:28;;;;;;;5.70;2.42;;;;;;;;;;5056808;28;20406;-31
2022/04/27 11:59:57;;;;;;;5.47;2.47;;;;;;;;;;5054344;28;20179;-27
2022/04/27 12:02:25;;;;;;;4.18;2.50;;;;;;;;;;5066320;28;20047;-30
2022/04/27 12:04:51;;;;;;;4.93;2.80;;;;;;;;;;5054866;28;20434;-30
2022/04/27 12:07:19;;;;;;;3.55;2.40;;;;;;;;;;5073876;28;20036;-29
2022/04/27 12:09:58;;;;;;;7.93;3.00;;;;;;;;;;5067310;28;20045;-30
2022/04/27 12:12:25;;;;;;;4.13;2.50;;;;;;;;;;5056858;28;20497;-27
2022/04/27 12:14:51;;;;;;;4.43;2.67;;;;;;;;;;5062809;28;20097;-31
2022/04/27 12:17:37;;;;;;;3.80;2.45;;;;;;;;;;5072626;28;20052;-27
2022/04/27 12:20:03;;;;;;;5.35;2.40;;;;;;;;;;5073318;28;20516;-28
2022/04/27 12:22:29;;;;;;;4.68;2.55;;;;;;;;;;5073198;28;20051;-26
2022/04/27 12:25:00;;;;;;;5.03;2.70;;;;;;;;;;5073328;28;20047;-26
2022/04/27 12:27:28;;;;;;;4.35;2.50;;;;;;;;;;5072902;28;20040;-28
2022/04/27 12:30:04;;;;;;;5.07;2.65;;;;;;;;;;5072455;28;20037;-27
2022/04/27 12:32:32;;;;;;;5.65;2.75;;;;;;;;;;5073132;28;20094;-27
2022/04/27 12:37:49;;;;;;;4.32;2.80;;;;;;;;;;5072873;28;20044;-26
2022/04/27 12:40:16;;;;;;;2.83;2.38;;;;;;;;;;5072836;28;20059;-27
2022/04/27 12:42:58;;;;;;;5.82;2.70;;;;;;;;;;5072916;28;20059;-26
2022/04/27 12:45:24;;;;;;;5.85;2.65;;;;;;;;;;5072920;28;20044;-26
2022/04/27 12:47:50;;;;;;;4.57;2.58;;;;;;;;;;5073000;28;20080;-27
2022/04/27 12:50:16;;;;;;;2.55;2.20;;;;;;;;;;5072570;28;20043;-27
2022/04/27 12:52:45;;;;;;;6.03;2.30;;;;;;;;;;5072456;28;20047;-29
2022/04/27 12:55:12;;;;;;;4.60;2.63;;;;;;;;;;5067415;28;20506;-27
2022/04/27 12:57:44;;;;;;;4.28;2.50;;;;;;;;;;5057926;28;20037;-27
2022/04/27 13:00:11;;;;;;;4.45;2.47;;;;;;;;;;5056646;28;20566;-27
2022/04/27 13:02:38;;;;;;;2.92;2.35;;;;;;;;;;5052297;28;20041;-27
2022/04/27 13:05:04;;;;;;;4.60;2.90;;;;;;;;;;5052501;28;20214;-28
2022/04/27 13:07:30;;;;;;;3.20;2.03;;;;;;;;;;5065937;28;20119;-27
2022/04/27 13:12:43;;;;;;;4.72;2.20;;;;;;;;;;5072253;28;20281;-26
2022/04/27 13:15:10;;;;;;;3.42;2.30;;;;;;;;;;5072151;28;20551;-27
2022/04/27 13:17:36;;;;;;;5.22;2.50;;;;;;;;;;5072361;28;20383;-29
2022/04/27 13:20:03;;;;;;;5.05;2.65;;;;;;;;;;5067918;28;20072;-29
2022/04/27 13:22:29;;;;;;;4.72;2.40;;;;;;;;;;5066463;28;20418;-26
2022/04/27 13:24:55;;;;;;;2.92;2.20;;;;;;;;;;5072104;28;20409;-27
2022/04/27 13:27:23;;;;;;;3.65;2.83;;;;;;;;;;5071522;28;20037;-27
2022/04/27 13:29:49;;;;;;;7.70;3.10;;;;;;;;;;5072020;28;20044;-27
2022/04/27 13:32:15;;;;;;;3.55;2.70;;;;;;;;;;5072127;28;20501;-27
2022/04/27 13:34:41;;;;;;;3.75;2.90;;;;;;;;;;5071876;28;20036;-27
2022/04/27 13:37:08;;;;;;;5.18;2.72;;;;;;;;;;5071939;28;20466;-29
2022/04/27 13:39:35;;;;;;;3.88;2.80;;;;;;;;;;5071564;28;20087;-28
2022/04/27 13:42:01;;;;;;;6.75;2.92;;;;;;;;;;5071517;28;20127;-27
2022/04/27 13:44:31;;;;;;;4.95;3.08;;;;;;;;;;5071530;28;20040;-28
2022/04/27 13:46:57;;;;;;;6.07;3.15;;;;;;;;;;5071669;28;20387;-27
2022/04/27 13:49:23;;;;;;;4.70;3.08;;;;;;;;;;5071791;28;20036;-27
2022/04/27 13:51:49;;;;;;;5.60;3.15;;;;;;;;;;5071905;28;20091;-29
2022/04/27 13:54:16;;;;;;;5.18;3.13;;;;;;;;;;5067524;28;20069;-27
2022/04/27 13:56:42;;;;;;;3.63;2.95;;;;;;;;;;5056134;28;20115;-27
2022/04/27 13:59:11;;;;;;;9.07;3.30;;;;;;;;;;5071294;28;20487;-28
2022/04/27 14:01:37;;;;;;;5.53;3.13;;;;;;;;;;5071324;28;20418;-27
2022/04/27 14:04:03;;;;;;;3.72;2.70;;;;;;;;;;5071250;28;20036;-28
2022/04/27 14:06:30;;;;;;;6.18;2.85;;;;;;;;;;5064299;28;20037;-30
2022/04/27 14:08:56;;;;;;;5.65;3.00;;;;;;;;;;5042301;28;20037;-30
2022/04/27 14:14:07;;;;;;;4.55;2.85;;;;;;;;;;5059315;28;20037;-32
2022/04/27 14:19:18;;;;;;;5.55;3.25;;;;;;;;;;5065854;28;20052;-29
2022/04/27 14:21:44;;;;;;;5.13;3.30;;;;;;;;;;5069811;28;20044;-32
2022/04/27 14:24:11;;;;;;;5.70;3.47;;;;;;;;;;5063030;28;20047;-29
2022/04/27 14:26:39;;;;;;;6.57;3.50;;;;;;;;;;5061344;28;20047;-30
2022/04/27 14:29:06;;;;;;;6.22;3.53;;;;;;;;;;5064858;28;20052;-30
2022/04/27 14:31:32;;;;;;;5.25;3.08;;;;;;;;;;5052312;28;20498;-32
2022/04/27 14:33:59;;;;;;;4.80;2.90;;;;;;;;;;5068816;28;20500;-31
2022/04/27 14:36:25;;;;;;;5.93;3.38;;;;;;;;;;5070477;28;20246;-33
2022/04/27 14:38:51;;;;;;;4.60;2.90;;;;;;;;;;5069822;28;20393;-31
2022/04/27 14:41:18;;;;;;;5.60;3.10;;;;;;;;;;5069747;28;20036;-30
2022/04/27 14:43:44;;;;;;;5.57;3.30;;;;;;;;;;5069478;28;20036;-30
2022/04/27 14:46:10;;;;;;;3.90;3.03;;;;;;;;;;5067991;28;20432;-30
2022/04/27 14:48:40;;;;;;;6.13;3.25;;;;;;;;;;5052420;28;20072;-31
2022/04/27 14:51:09;;;;;;;7.32;2.97;;;;;;;;;;5055135;28;20040;-30
2022/04/27 14:53:35;;;;;;;9.73;3.28;;;;;;;;;;5068756;28;20082;-32
2022/04/27 14:56:07;;;;;;;7.90;3.30;;;;;;;;;;5065003;28;20032;-30
2022/04/27 14:58:34;;;;;;;5.20;3.17;;;;;;;;;;5069051;28;20040;-30
2022/04/27 15:01:01;;;;;;;3.83;2.90;;;;;;;;;;5064727;28;20124;-30
2022/04/27 15:03:28;;;;;;;7.07;3.30;;;;;;;;;;5066750;28;20514;-30
2022/04/27 15:05:54;;;;;;;7.40;3.42;;;;;;;;;;5067553;28;20106;-32
2022/04/27 15:08:20;;;;;;;5.63;3.33;;;;;;;;;;5066764;28;20048;-32